sensor_id;sensor_type;location;lat;lon;timestamp;P1;durP1;ratioP1;P2;durP2;ratioP2
25531;SDS011;13429;48.816;9.118;2022-11-24T00:00:33;20.52;;;3.97;;
25531;SDS011;13429;48.816;9.118;2022-11-24T00:03:00;24.90;;;4.53;;
25531;SDS011;13429;48.816;9.118;2022-11-24T00:05:28;22.73;;;3.78;;
25531;SDS011;13429;48.816;9.118;2022-11-24T00:07:54;17.65;;;4.05;;
25531;SDS011;13429;48.816;9.118;2022-11-24T00:10:20;20.75;;;3.40;;
25531;SDS011;13429;48.816;9.118;2022-11-24T00:12:46;19.40;;;3.58;;
25531;SDS011;13429;48.816;9.118;2022-11-24T00:15:12;13.20;;;3.58;;
25531;SDS011;13429;48.816;9.118;2022-11-24T00:17:38;14.60;;;3.03;;
25531;SDS011;13429;48.816;9.118;2022-11-24T00:20:04;14.38;;;3.08;;
25531;SDS011;13429;48.816;9.118;2022-11-24T00:22:30;14.73;;;2.97;;
25531;SDS011;13429;48.816;9.118;2022-11-24T00:24:56;16.45;;;3.10;;
25531;SDS011;13429;48.816;9.118;2022-11-24T00:27:22;12.07;;;2.60;;
25531;SDS011;13429;48.816;9.118;2022-11-24T00:29:48;16.23;;;3.40;;
25531;SDS011;13429;48.816;9.118;2022-11-24T00:32:14;15.68;;;3.22;;
25531;SDS011;13429;48.816;9.118;2022-11-24T00:34:40;13.43;;;2.67;;
25531;SDS011;13429;48.816;9.118;2022-11-24T00:37:06;11.23;;;2.47;;
25531;SDS011;13429;48.816;9.118;2022-11-24T00:39:32;14.68;;;3.60;;
25531;SDS011;13429;48.816;9.118;2022-11-24T00:41:58;13.48;;;3.50;;
25531;SDS011;13429;48.816;9.118;2022-11-24T00:44:23;12.70;;;3.45;;
25531;SDS011;13429;48.816;9.118;2022-11-24T00:46:49;11.15;;;2.72;;
25531;SDS011;13429;48.816;9.118;2022-11-24T00:49:15;18.90;;;2.92;;
25531;SDS011;13429;48.816;9.118;2022-11-24T00:51:41;14.13;;;2.72;;
25531;SDS011;13429;48.816;9.118;2022-11-24T00:54:07;8.20;;;2.45;;
25531;SDS011;13429;48.816;9.118;2022-11-24T00:56:33;8.50;;;1.70;;
25531;SDS011;13429;48.816;9.118;2022-11-24T00:58:59;8.82;;;1.95;;
25531;SDS011;13429;48.816;9.118;2022-11-24T01:01:26;6.47;;;2.05;;
25531;SDS011;13429;48.816;9.118;2022-11-24T01:03:52;18.58;;;2.80;;
25531;SDS011;13429;48.816;9.118;2022-11-24T01:06:23;13.93;;;2.35;;
25531;SDS011;13429;48.816;9.118;2022-11-24T01:08:50;13.27;;;2.08;;
25531;SDS011;13429;48.816;9.118;2022-11-24T01:13:43;10.32;;;1.90;;
25531;SDS011;13429;48.816;9.118;2022-11-24T01:16:18;20.52;;;3.50;;
25531;SDS011;13429;48.816;9.118;2022-11-24T01:18:44;9.77;;;2.38;;
25531;SDS011;13429;48.816;9.118;2022-11-24T01:21:10;12.82;;;2.35;;
25531;SDS011;13429;48.816;9.118;2022-11-24T01:23:37;7.75;;;2.22;;
25531;SDS011;13429;48.816;9.118;2022-11-24T01:26:04;14.73;;;2.97;;
25531;SDS011;13429;48.816;9.118;2022-11-24T01:28:30;12.13;;;2.83;;
25531;SDS011;13429;48.816;9.118;2022-11-24T01:30:59;10.32;;;2.28;;
25531;SDS011;13429;48.816;9.118;2022-11-24T01:33:26;10.88;;;2.05;;
25531;SDS011;13429;48.816;9.118;2022-11-24T01:35:52;12.13;;;2.35;;
25531;SDS011;13429;48.816;9.118;2022-11-24T01:38:18;14.30;;;2.70;;
25531;SDS011;13429;48.816;9.118;2022-11-24T01:40:44;8.98;;;2.10;;
25531;SDS011;13429;48.816;9.118;2022-11-24T01:43:15;5.60;;;1.80;;
25531;SDS011;13429;48.816;9.118;2022-11-24T01:45:41;13.57;;;2.22;;
25531;SDS011;13429;48.816;9.118;2022-11-24T01:48:12;5.93;;;1.85;;
25531;SDS011;13429;48.816;9.118;2022-11-24T01:50:40;13.73;;;2.08;;
25531;SDS011;13429;48.816;9.118;2022-11-24T01:53:06;18.70;;;2.15;;
25531;SDS011;13429;48.816;9.118;2022-11-24T01:55:34;8.25;;;2.22;;
25531;SDS011;13429;48.816;9.118;2022-11-24T01:58:05;8.38;;;1.65;;
25531;SDS011;13429;48.816;9.118;2022-11-24T02:00:32;12.40;;;2.25;;
25531;SDS011;13429;48.816;9.118;2022-11-24T02:02:59;9.80;;;1.27;;
25531;SDS011;13429;48.816;9.118;2022-11-24T02:05:27;11.35;;;2.88;;
25531;SDS011;13429;48.816;9.118;2022-11-24T02:07:54;12.93;;;2.78;;
25531;SDS011;13429;48.816;9.118;2022-11-24T02:10:21;6.78;;;1.92;;
25531;SDS011;13429;48.816;9.118;2022-11-24T02:12:48;6.28;;;1.38;;
25531;SDS011;13429;48.816;9.118;2022-11-24T02:15:15;9.30;;;2.35;;
25531;SDS011;13429;48.816;9.118;2022-11-24T02:17:42;6.32;;;1.63;;
25531;SDS011;13429;48.816;9.118;2022-11-24T02:20:08;12.00;;;2.30;;
25531;SDS011;13429;48.816;9.118;2022-11-24T02:27:48;11.05;;;2.50;;
25531;SDS011;13429;48.816;9.118;2022-11-24T02:30:15;18.13;;;2.67;;
25531;SDS011;13429;48.816;9.118;2022-11-24T02:32:41;10.07;;;1.85;;
25531;SDS011;13429;48.816;9.118;2022-11-24T02:35:10;14.52;;;2.13;;
25531;SDS011;13429;48.816;9.118;2022-11-24T02:37:36;5.47;;;1.67;;
25531;SDS011;13429;48.816;9.118;2022-11-24T02:40:02;9.40;;;1.90;;
25531;SDS011;13429;48.816;9.118;2022-11-24T02:42:29;7.32;;;1.77;;
25531;SDS011;13429;48.816;9.118;2022-11-24T02:44:57;11.57;;;2.30;;
25531;SDS011;13429;48.816;9.118;2022-11-24T02:47:24;14.68;;;2.05;;
25531;SDS011;13429;48.816;9.118;2022-11-24T02:49:50;11.75;;;1.98;;
25531;SDS011;13429;48.816;9.118;2022-11-24T02:52:16;7.95;;;2.65;;
25531;SDS011;13429;48.816;9.118;2022-11-24T02:54:43;7.75;;;2.03;;
25531;SDS011;13429;48.816;9.118;2022-11-24T02:57:09;12.13;;;2.80;;
25531;SDS011;13429;48.816;9.118;2022-11-24T02:59:35;9.50;;;2.25;;
25531;SDS011;13429;48.816;9.118;2022-11-24T03:02:01;7.18;;;2.38;;
25531;SDS011;13429;48.816;9.118;2022-11-24T03:04:27;7.75;;;1.77;;
25531;SDS011;13429;48.816;9.118;2022-11-24T03:06:53;10.10;;;2.10;;
25531;SDS011;13429;48.816;9.118;2022-11-24T03:09:19;10.35;;;1.52;;
25531;SDS011;13429;48.816;9.118;2022-11-24T03:11:45;9.85;;;2.15;;
25531;SDS011;13429;48.816;9.118;2022-11-24T03:17:14;7.57;;;1.80;;
25531;SDS011;13429;48.816;9.118;2022-11-24T03:19:40;11.65;;;2.25;;
25531;SDS011;13429;48.816;9.118;2022-11-24T03:22:06;6.28;;;1.90;;
25531;SDS011;13429;48.816;9.118;2022-11-24T03:24:32;4.47;;;1.52;;
25531;SDS011;13429;48.816;9.118;2022-11-24T03:26:58;10.60;;;1.90;;
25531;SDS011;13429;48.816;9.118;2022-11-24T03:29:24;6.50;;;1.55;;
25531;SDS011;13429;48.816;9.118;2022-11-24T03:31:50;6.82;;;2.05;;
25531;SDS011;13429;48.816;9.118;2022-11-24T03:34:16;9.55;;;1.65;;
25531;SDS011;13429;48.816;9.118;2022-11-24T03:36:42;4.90;;;1.42;;
25531;SDS011;13429;48.816;9.118;2022-11-24T03:39:08;17.55;;;3.15;;
25531;SDS011;13429;48.816;9.118;2022-11-24T03:41:34;8.38;;;2.05;;
25531;SDS011;13429;48.816;9.118;2022-11-24T03:44:00;6.10;;;1.58;;
25531;SDS011;13429;48.816;9.118;2022-11-24T03:46:26;12.73;;;1.80;;
25531;SDS011;13429;48.816;9.118;2022-11-24T03:48:52;4.45;;;1.55;;
25531;SDS011;13429;48.816;9.118;2022-11-24T03:51:18;11.40;;;2.78;;
25531;SDS011;13429;48.816;9.118;2022-11-24T03:53:44;5.95;;;1.60;;
25531;SDS011;13429;48.816;9.118;2022-11-24T03:56:10;8.15;;;1.60;;
25531;SDS011;13429;48.816;9.118;2022-11-24T03:58:36;5.47;;;2.22;;
25531;SDS011;13429;48.816;9.118;2022-11-24T04:01:02;10.15;;;1.67;;
25531;SDS011;13429;48.816;9.118;2022-11-24T04:03:28;7.78;;;2.05;;
25531;SDS011;13429;48.816;9.118;2022-11-24T04:05:54;10.38;;;1.80;;
25531;SDS011;13429;48.816;9.118;2022-11-24T04:08:20;11.45;;;2.78;;
25531;SDS011;13429;48.816;9.118;2022-11-24T04:10:50;11.52;;;1.50;;
25531;SDS011;13429;48.816;9.118;2022-11-24T04:13:16;8.00;;;2.03;;
25531;SDS011;13429;48.816;9.118;2022-11-24T04:15:43;6.40;;;1.60;;
25531;SDS011;13429;48.816;9.118;2022-11-24T04:18:10;8.07;;;1.75;;
25531;SDS011;13429;48.816;9.118;2022-11-24T04:20:37;5.72;;;1.75;;
25531;SDS011;13429;48.816;9.118;2022-11-24T04:23:03;7.22;;;1.65;;
25531;SDS011;13429;48.816;9.118;2022-11-24T04:25:29;8.32;;;1.60;;
25531;SDS011;13429;48.816;9.118;2022-11-24T04:27:55;8.02;;;1.75;;
25531;SDS011;13429;48.816;9.118;2022-11-24T04:30:22;7.43;;;2.08;;
25531;SDS011;13429;48.816;9.118;2022-11-24T04:32:48;4.60;;;1.55;;
25531;SDS011;13429;48.816;9.118;2022-11-24T04:35:14;8.57;;;1.70;;
25531;SDS011;13429;48.816;9.118;2022-11-24T04:37:40;9.20;;;2.15;;
25531;SDS011;13429;48.816;9.118;2022-11-24T04:40:07;8.30;;;2.17;;
25531;SDS011;13429;48.816;9.118;2022-11-24T04:42:33;10.75;;;1.75;;
25531;SDS011;13429;48.816;9.118;2022-11-24T04:44:59;18.50;;;3.17;;
25531;SDS011;13429;48.816;9.118;2022-11-24T04:47:25;9.65;;;2.17;;
25531;SDS011;13429;48.816;9.118;2022-11-24T04:49:51;10.82;;;3.05;;
25531;SDS011;13429;48.816;9.118;2022-11-24T04:52:18;14.68;;;1.80;;
25531;SDS011;13429;48.816;9.118;2022-11-24T04:54:45;9.85;;;3.28;;
25531;SDS011;13429;48.816;9.118;2022-11-24T04:57:20;12.50;;;2.25;;
25531;SDS011;13429;48.816;9.118;2022-11-24T04:59:46;5.75;;;1.95;;
25531;SDS011;13429;48.816;9.118;2022-11-24T05:02:13;11.80;;;2.17;;
25531;SDS011;13429;48.816;9.118;2022-11-24T05:04:39;9.70;;;2.22;;
25531;SDS011;13429;48.816;9.118;2022-11-24T05:07:05;7.97;;;2.08;;
25531;SDS011;13429;48.816;9.118;2022-11-24T05:09:31;12.35;;;3.15;;
25531;SDS011;13429;48.816;9.118;2022-11-24T05:11:57;12.48;;;4.30;;
25531;SDS011;13429;48.816;9.118;2022-11-24T05:14:23;8.77;;;3.97;;
25531;SDS011;13429;48.816;9.118;2022-11-24T05:16:50;8.85;;;2.33;;
25531;SDS011;13429;48.816;9.118;2022-11-24T05:19:16;10.60;;;2.42;;
25531;SDS011;13429;48.816;9.118;2022-11-24T05:21:42;9.23;;;2.70;;
25531;SDS011;13429;48.816;9.118;2022-11-24T05:24:09;8.57;;;2.10;;
25531;SDS011;13429;48.816;9.118;2022-11-24T05:26:35;12.30;;;3.10;;
25531;SDS011;13429;48.816;9.118;2022-11-24T05:29:01;9.45;;;2.25;;
25531;SDS011;13429;48.816;9.118;2022-11-24T05:31:27;12.02;;;2.13;;
25531;SDS011;13429;48.816;9.118;2022-11-24T05:33:53;11.38;;;2.17;;
25531;SDS011;13429;48.816;9.118;2022-11-24T05:36:19;9.50;;;2.10;;
25531;SDS011;13429;48.816;9.118;2022-11-24T05:39:03;13.85;;;2.65;;
25531;SDS011;13429;48.816;9.118;2022-11-24T05:41:29;11.93;;;2.47;;
25531;SDS011;13429;48.816;9.118;2022-11-24T05:43:55;10.68;;;2.45;;
25531;SDS011;13429;48.816;9.118;2022-11-24T05:46:21;12.80;;;3.03;;
25531;SDS011;13429;48.816;9.118;2022-11-24T05:48:47;10.23;;;2.10;;
25531;SDS011;13429;48.816;9.118;2022-11-24T05:51:13;7.00;;;2.30;;
25531;SDS011;13429;48.816;9.118;2022-11-24T05:53:39;10.82;;;2.53;;
25531;SDS011;13429;48.816;9.118;2022-11-24T05:56:05;12.60;;;2.33;;
25531;SDS011;13429;48.816;9.118;2022-11-24T05:58:31;13.00;;;3.08;;
25531;SDS011;13429;48.816;9.118;2022-11-24T06:00:57;15.75;;;2.58;;
25531;SDS011;13429;48.816;9.118;2022-11-24T06:03:23;8.43;;;2.33;;
25531;SDS011;13429;48.816;9.118;2022-11-24T06:05:49;14.73;;;3.00;;
25531;SDS011;13429;48.816;9.118;2022-11-24T06:08:14;13.30;;;2.33;;
25531;SDS011;13429;48.816;9.118;2022-11-24T06:10:40;9.18;;;1.88;;
25531;SDS011;13429;48.816;9.118;2022-11-24T06:13:06;14.70;;;3.50;;
25531;SDS011;13429;48.816;9.118;2022-11-24T06:15:33;11.13;;;2.33;;
25531;SDS011;13429;48.816;9.118;2022-11-24T06:18:01;8.70;;;2.53;;
25531;SDS011;13429;48.816;9.118;2022-11-24T06:20:27;11.43;;;2.35;;
25531;SDS011;13429;48.816;9.118;2022-11-24T06:22:53;10.98;;;2.63;;
25531;SDS011;13429;48.816;9.118;2022-11-24T06:25:22;11.00;;;2.60;;
25531;SDS011;13429;48.816;9.118;2022-11-24T06:27:48;11.60;;;2.60;;
25531;SDS011;13429;48.816;9.118;2022-11-24T06:30:14;17.15;;;3.47;;
25531;SDS011;13429;48.816;9.118;2022-11-24T06:32:40;17.67;;;3.28;;
25531;SDS011;13429;48.816;9.118;2022-11-24T06:35:09;9.52;;;2.83;;
25531;SDS011;13429;48.816;9.118;2022-11-24T06:37:35;17.35;;;3.22;;
25531;SDS011;13429;48.816;9.118;2022-11-24T06:40:02;9.77;;;2.40;;
25531;SDS011;13429;48.816;9.118;2022-11-24T06:42:28;13.98;;;2.75;;
25531;SDS011;13429;48.816;9.118;2022-11-24T06:44:54;10.98;;;2.20;;
25531;SDS011;13429;48.816;9.118;2022-11-24T06:47:20;11.48;;;2.47;;
25531;SDS011;13429;48.816;9.118;2022-11-24T06:49:46;9.65;;;2.47;;
25531;SDS011;13429;48.816;9.118;2022-11-24T06:52:12;6.10;;;2.22;;
25531;SDS011;13429;48.816;9.118;2022-11-24T06:54:38;9.52;;;2.42;;
25531;SDS011;13429;48.816;9.118;2022-11-24T06:57:04;7.97;;;2.28;;
25531;SDS011;13429;48.816;9.118;2022-11-24T06:59:30;13.88;;;1.77;;
25531;SDS011;13429;48.816;9.118;2022-11-24T07:01:56;9.52;;;2.25;;
25531;SDS011;13429;48.816;9.118;2022-11-24T07:04:22;9.98;;;2.35;;
25531;SDS011;13429;48.816;9.118;2022-11-24T07:06:49;14.90;;;2.47;;
25531;SDS011;13429;48.816;9.118;2022-11-24T07:09:15;9.02;;;2.25;;
25531;SDS011;13429;48.816;9.118;2022-11-24T07:11:41;14.65;;;2.63;;
25531;SDS011;13429;48.816;9.118;2022-11-24T07:14:08;17.35;;;3.50;;
25531;SDS011;13429;48.816;9.118;2022-11-24T07:16:34;10.75;;;2.33;;
25531;SDS011;13429;48.816;9.118;2022-11-24T07:19:00;16.58;;;2.45;;
25531;SDS011;13429;48.816;9.118;2022-11-24T07:21:27;14.90;;;2.75;;
25531;SDS011;13429;48.816;9.118;2022-11-24T07:23:54;9.50;;;2.25;;
25531;SDS011;13429;48.816;9.118;2022-11-24T07:26:22;18.42;;;3.35;;
25531;SDS011;13429;48.816;9.118;2022-11-24T07:28:48;11.07;;;2.55;;
25531;SDS011;13429;48.816;9.118;2022-11-24T07:31:16;10.15;;;1.95;;
25531;SDS011;13429;48.816;9.118;2022-11-24T07:33:47;12.98;;;2.65;;
25531;SDS011;13429;48.816;9.118;2022-11-24T07:36:13;10.05;;;2.22;;
25531;SDS011;13429;48.816;9.118;2022-11-24T07:38:40;12.30;;;3.17;;
25531;SDS011;13429;48.816;9.118;2022-11-24T07:41:08;14.40;;;3.10;;
25531;SDS011;13429;48.816;9.118;2022-11-24T07:43:35;11.55;;;2.10;;
25531;SDS011;13429;48.816;9.118;2022-11-24T07:46:01;13.30;;;2.47;;
25531;SDS011;13429;48.816;9.118;2022-11-24T07:48:27;23.05;;;2.63;;
25531;SDS011;13429;48.816;9.118;2022-11-24T07:50:57;11.18;;;2.05;;
25531;SDS011;13429;48.816;9.118;2022-11-24T07:53:24;26.48;;;9.30;;
25531;SDS011;13429;48.816;9.118;2022-11-24T07:55:53;11.13;;;4.30;;
25531;SDS011;13429;48.816;9.118;2022-11-24T07:58:20;13.30;;;2.85;;
25531;SDS011;13429;48.816;9.118;2022-11-24T08:00:49;17.20;;;2.50;;
25531;SDS011;13429;48.816;9.118;2022-11-24T08:03:37;13.02;;;2.00;;
25531;SDS011;13429;48.816;9.118;2022-11-24T08:06:03;11.43;;;2.13;;
25531;SDS011;13429;48.816;9.118;2022-11-24T08:08:29;9.15;;;2.35;;
25531;SDS011;13429;48.816;9.118;2022-11-24T08:10:57;7.53;;;1.67;;
25531;SDS011;13429;48.816;9.118;2022-11-24T08:13:24;5.45;;;1.27;;
25531;SDS011;13429;48.816;9.118;2022-11-24T08:15:51;6.90;;;1.40;;
25531;SDS011;13429;48.816;9.118;2022-11-24T08:18:17;3.88;;;1.48;;
25531;SDS011;13429;48.816;9.118;2022-11-24T08:20:43;3.42;;;1.33;;
25531;SDS011;13429;48.816;9.118;2022-11-24T08:23:09;5.70;;;1.30;;
25531;SDS011;13429;48.816;9.118;2022-11-24T08:25:35;6.72;;;1.42;;
25531;SDS011;13429;48.816;9.118;2022-11-24T08:28:01;4.35;;;0.95;;
25531;SDS011;13429;48.816;9.118;2022-11-24T08:30:28;3.63;;;0.95;;
25531;SDS011;13429;48.816;9.118;2022-11-24T08:32:54;4.00;;;0.95;;
25531;SDS011;13429;48.816;9.118;2022-11-24T08:35:20;2.92;;;0.60;;
25531;SDS011;13429;48.816;9.118;2022-11-24T08:37:46;2.08;;;1.00;;
25531;SDS011;13429;48.816;9.118;2022-11-24T08:40:12;7.40;;;1.40;;
25531;SDS011;13429;48.816;9.118;2022-11-24T08:42:38;2.67;;;0.98;;
25531;SDS011;13429;48.816;9.118;2022-11-24T08:45:04;1.25;;;0.70;;
25531;SDS011;13429;48.816;9.118;2022-11-24T08:47:30;2.33;;;0.88;;
25531;SDS011;13429;48.816;9.118;2022-11-24T08:49:56;2.40;;;0.50;;
25531;SDS011;13429;48.816;9.118;2022-11-24T08:52:22;0.93;;;0.70;;
25531;SDS011;13429;48.816;9.118;2022-11-24T08:54:48;0.60;;;0.38;;
25531;SDS011;13429;48.816;9.118;2022-11-24T08:57:14;1.55;;;0.40;;
25531;SDS011;13429;48.816;9.118;2022-11-24T08:59:40;0.63;;;0.35;;
25531;SDS011;13429;48.816;9.118;2022-11-24T09:02:09;0.30;;;0.30;;
25531;SDS011;13429;48.816;9.118;2022-11-24T09:04:36;1.30;;;0.32;;
25531;SDS011;13429;48.816;9.118;2022-11-24T09:07:02;1.40;;;0.55;;
25531;SDS011;13429;48.816;9.118;2022-11-24T09:09:28;1.58;;;0.20;;
25531;SDS011;13429;48.816;9.118;2022-11-24T09:11:54;3.13;;;0.45;;
25531;SDS011;13429;48.816;9.118;2022-11-24T09:14:20;1.48;;;0.60;;
25531;SDS011;13429;48.816;9.118;2022-11-24T09:16:46;0.77;;;0.47;;
25531;SDS011;13429;48.816;9.118;2022-11-24T09:19:12;1.02;;;0.40;;
25531;SDS011;13429;48.816;9.118;2022-11-24T09:21:38;1.80;;;0.73;;
25531;SDS011;13429;48.816;9.118;2022-11-24T09:24:08;1.02;;;0.55;;
25531;SDS011;13429;48.816;9.118;2022-11-24T09:26:35;1.95;;;0.52;;
25531;SDS011;13429;48.816;9.118;2022-11-24T09:29:02;1.95;;;0.80;;
25531;SDS011;13429;48.816;9.118;2022-11-24T09:31:33;1.52;;;0.47;;
25531;SDS011;13429;48.816;9.118;2022-11-24T09:34:00;1.27;;;0.60;;
25531;SDS011;13429;48.816;9.118;2022-11-24T09:36:26;1.80;;;0.40;;
25531;SDS011;13429;48.816;9.118;2022-11-24T09:38:52;1.70;;;0.32;;
25531;SDS011;13429;48.816;9.118;2022-11-24T09:41:38;1.60;;;0.43;;
25531;SDS011;13429;48.816;9.118;2022-11-24T09:49:11;1.73;;;0.52;;
25531;SDS011;13429;48.816;9.118;2022-11-24T09:51:39;2.63;;;0.55;;
25531;SDS011;13429;48.816;9.118;2022-11-24T09:54:12;0.47;;;0.15;;
25531;SDS011;13429;48.816;9.118;2022-11-24T09:56:39;0.60;;;0.30;;
25531;SDS011;13429;48.816;9.118;2022-11-24T09:59:13;0.28;;;0.17;;
25531;SDS011;13429;48.816;9.118;2022-11-24T10:01:40;1.00;;;0.22;;
25531;SDS011;13429;48.816;9.118;2022-11-24T10:06:47;0.70;;;0.32;;
25531;SDS011;13429;48.816;9.118;2022-11-24T10:09:19;1.10;;;0.40;;
25531;SDS011;13429;48.816;9.118;2022-11-24T10:17:52;0.98;;;0.55;;
25531;SDS011;13429;48.816;9.118;2022-11-24T10:20:07;1.30;;;0.60;;
25531;SDS011;13429;48.816;9.118;2022-11-24T10:25:24;1.30;;;0.38;;
25531;SDS011;13429;48.816;9.118;2022-11-24T10:27:58;2.70;;;0.60;;
25531;SDS011;13429;48.816;9.118;2022-11-24T10:30:25;0.85;;;0.47;;
25531;SDS011;13429;48.816;9.118;2022-11-24T10:32:55;1.55;;;0.50;;
25531;SDS011;13429;48.816;9.118;2022-11-24T10:35:29;2.40;;;0.73;;
25531;SDS011;13429;48.816;9.118;2022-11-24T10:38:13;0.70;;;0.30;;
25531;SDS011;13429;48.816;9.118;2022-11-24T10:40:49;3.13;;;0.45;;
25531;SDS011;13429;48.816;9.118;2022-11-24T10:43:17;0.65;;;0.35;;
25531;SDS011;13429;48.816;9.118;2022-11-24T10:45:43;2.92;;;0.50;;
25531;SDS011;13429;48.816;9.118;2022-11-24T10:48:16;2.95;;;0.40;;
25531;SDS011;13429;48.816;9.118;2022-11-24T10:50:43;2.47;;;0.50;;
25531;SDS011;13429;48.816;9.118;2022-11-24T10:58:32;1.08;;;0.63;;
25531;SDS011;13429;48.816;9.118;2022-11-24T11:01:00;0.85;;;0.57;;
25531;SDS011;13429;48.816;9.118;2022-11-24T11:03:28;2.00;;;0.45;;
25531;SDS011;13429;48.816;9.118;2022-11-24T11:05:59;1.63;;;0.35;;
25531;SDS011;13429;48.816;9.118;2022-11-24T11:08:27;1.58;;;0.70;;
25531;SDS011;13429;48.816;9.118;2022-11-24T11:13:45;4.32;;;1.17;;
25531;SDS011;13429;48.816;9.118;2022-11-24T11:24:28;3.13;;;0.63;;
25531;SDS011;13429;48.816;9.118;2022-11-24T11:27:01;2.60;;;0.82;;
25531;SDS011;13429;48.816;9.118;2022-11-24T11:29:27;2.67;;;0.70;;
25531;SDS011;13429;48.816;9.118;2022-11-24T11:31:58;1.48;;;0.55;;
25531;SDS011;13429;48.816;9.118;2022-11-24T11:34:24;4.53;;;1.10;;
25531;SDS011;13429;48.816;9.118;2022-11-24T11:36:51;3.78;;;0.98;;
25531;SDS011;13429;48.816;9.118;2022-11-24T11:39:34;4.78;;;0.90;;
25531;SDS011;13429;48.816;9.118;2022-11-24T11:42:13;4.57;;;1.05;;
25531;SDS011;13429;48.816;9.118;2022-11-24T11:44:48;5.33;;;1.20;;
25531;SDS011;13429;48.816;9.118;2022-11-24T11:47:20;4.05;;;0.93;;
25531;SDS011;13429;48.816;9.118;2022-11-24T11:49:47;5.18;;;1.00;;
25531;SDS011;13429;48.816;9.118;2022-11-24T11:55:13;4.65;;;1.55;;
25531;SDS011;13429;48.816;9.118;2022-11-24T11:57:47;3.85;;;0.95;;
25531;SDS011;13429;48.816;9.118;2022-11-24T12:00:16;5.40;;;1.17;;
25531;SDS011;13429;48.816;9.118;2022-11-24T12:10:21;5.03;;;1.27;;
25531;SDS011;13429;48.816;9.118;2022-11-24T12:12:54;5.57;;;1.17;;
25531;SDS011;13429;48.816;9.118;2022-11-24T12:15:39;8.90;;;1.40;;
25531;SDS011;13429;48.816;9.118;2022-11-24T12:25:45;8.82;;;2.40;;
25531;SDS011;13429;48.816;9.118;2022-11-24T12:30:44;7.78;;;1.52;;
25531;SDS011;13429;48.816;9.118;2022-11-24T12:43:49;12.32;;;1.63;;
25531;SDS011;13429;48.816;9.118;2022-11-24T12:46:22;9.40;;;1.60;;
25531;SDS011;13429;48.816;9.118;2022-11-24T12:51:29;7.97;;;2.15;;
25531;SDS011;13429;48.816;9.118;2022-11-24T12:53:56;12.20;;;2.10;;
25531;SDS011;13429;48.816;9.118;2022-11-24T12:56:33;8.15;;;1.77;;
25531;SDS011;13429;48.816;9.118;2022-11-24T13:01:52;12.07;;;2.10;;
25531;SDS011;13429;48.816;9.118;2022-11-24T13:04:33;8.52;;;1.77;;
25531;SDS011;13429;48.816;9.118;2022-11-24T13:07:08;10.25;;;2.67;;
25531;SDS011;13429;48.816;9.118;2022-11-24T13:12:54;16.45;;;2.28;;
25531;SDS011;13429;48.816;9.118;2022-11-24T13:15:20;8.88;;;1.40;;
25531;SDS011;13429;48.816;9.118;2022-11-24T13:17:46;6.10;;;1.33;;
25531;SDS011;13429;48.816;9.118;2022-11-24T13:22:48;6.60;;;1.63;;
25531;SDS011;13429;48.816;9.118;2022-11-24T13:25:18;7.20;;;1.90;;
25531;SDS011;13429;48.816;9.118;2022-11-24T13:27:45;6.13;;;2.10;;
25531;SDS011;13429;48.816;9.118;2022-11-24T13:35:26;7.05;;;1.65;;
25531;SDS011;13429;48.816;9.118;2022-11-24T13:37:52;6.45;;;1.58;;
25531;SDS011;13429;48.816;9.118;2022-11-24T13:53:23;4.75;;;1.85;;
25531;SDS011;13429;48.816;9.118;2022-11-24T13:55:57;11.18;;;1.85;;
25531;SDS011;13429;48.816;9.118;2022-11-24T14:03:45;11.65;;;3.17;;
25531;SDS011;13429;48.816;9.118;2022-11-24T14:06:13;7.68;;;2.00;;
25531;SDS011;13429;48.816;9.118;2022-11-24T14:08:40;5.65;;;1.83;;
25531;SDS011;13429;48.816;9.118;2022-11-24T14:11:11;8.45;;;2.78;;
25531;SDS011;13429;48.816;9.118;2022-11-24T14:13:38;4.50;;;1.38;;
25531;SDS011;13429;48.816;9.118;2022-11-24T14:16:05;11.07;;;2.10;;
25531;SDS011;13429;48.816;9.118;2022-11-24T14:18:32;9.90;;;1.90;;
25531;SDS011;13429;48.816;9.118;2022-11-24T14:20:59;6.13;;;1.95;;
25531;SDS011;13429;48.816;9.118;2022-11-24T14:23:25;8.45;;;2.40;;
25531;SDS011;13429;48.816;9.118;2022-11-24T14:25:51;2.92;;;1.15;;
25531;SDS011;13429;48.816;9.118;2022-11-24T14:28:24;7.47;;;1.85;;
25531;SDS011;13429;48.816;9.118;2022-11-24T14:31:05;6.90;;;1.73;;
25531;SDS011;13429;48.816;9.118;2022-11-24T14:33:31;9.93;;;2.38;;
25531;SDS011;13429;48.816;9.118;2022-11-24T14:35:57;6.50;;;2.05;;
25531;SDS011;13429;48.816;9.118;2022-11-24T14:38:23;8.13;;;2.22;;
25531;SDS011;13429;48.816;9.118;2022-11-24T14:40:49;4.95;;;2.00;;
25531;SDS011;13429;48.816;9.118;2022-11-24T14:45:48;10.63;;;2.10;;
25531;SDS011;13429;48.816;9.118;2022-11-24T14:48:15;10.20;;;2.28;;
25531;SDS011;13429;48.816;9.118;2022-11-24T14:50:42;8.65;;;2.08;;
25531;SDS011;13429;48.816;9.118;2022-11-24T14:53:10;8.23;;;1.40;;
25531;SDS011;13429;48.816;9.118;2022-11-24T14:55:38;9.23;;;2.90;;
25531;SDS011;13429;48.816;9.118;2022-11-24T14:58:18;6.40;;;2.65;;
25531;SDS011;13429;48.816;9.118;2022-11-24T15:00:44;9.80;;;2.35;;
25531;SDS011;13429;48.816;9.118;2022-11-24T15:03:14;8.73;;;1.90;;
25531;SDS011;13429;48.816;9.118;2022-11-24T15:05:51;6.93;;;2.13;;
25531;SDS011;13429;48.816;9.118;2022-11-24T15:08:18;8.70;;;1.80;;
25531;SDS011;13429;48.816;9.118;2022-11-24T15:10:44;11.90;;;2.55;;
25531;SDS011;13429;48.816;9.118;2022-11-24T15:13:18;5.53;;;1.98;;
25531;SDS011;13429;48.816;9.118;2022-11-24T15:15:46;13.73;;;1.63;;
25531;SDS011;13429;48.816;9.118;2022-11-24T15:18:21;8.68;;;2.00;;
25531;SDS011;13429;48.816;9.118;2022-11-24T15:20:48;6.45;;;1.48;;
25531;SDS011;13429;48.816;9.118;2022-11-24T15:25:41;4.50;;;1.55;;
25531;SDS011;13429;48.816;9.118;2022-11-24T15:28:07;5.80;;;1.48;;
25531;SDS011;13429;48.816;9.118;2022-11-24T15:30:34;6.45;;;1.88;;
25531;SDS011;13429;48.816;9.118;2022-11-24T15:33:00;7.18;;;2.22;;
25531;SDS011;13429;48.816;9.118;2022-11-24T15:35:30;6.88;;;2.47;;
25531;SDS011;13429;48.816;9.118;2022-11-24T15:37:56;8.05;;;2.40;;
25531;SDS011;13429;48.816;9.118;2022-11-24T15:40:22;7.60;;;2.33;;
25531;SDS011;13429;48.816;9.118;2022-11-24T15:42:55;9.05;;;2.67;;
25531;SDS011;13429;48.816;9.118;2022-11-24T15:45:22;8.43;;;3.13;;
25531;SDS011;13429;48.816;9.118;2022-11-24T15:47:48;11.35;;;2.65;;
25531;SDS011;13429;48.816;9.118;2022-11-24T15:53:19;6.38;;;1.80;;
25531;SDS011;13429;48.816;9.118;2022-11-24T15:55:46;9.88;;;2.63;;
25531;SDS011;13429;48.816;9.118;2022-11-24T15:58:12;7.25;;;2.05;;
25531;SDS011;13429;48.816;9.118;2022-11-24T16:00:39;11.27;;;2.47;;
25531;SDS011;13429;48.816;9.118;2022-11-24T16:03:05;8.65;;;2.83;;
25531;SDS011;13429;48.816;9.118;2022-11-24T16:05:31;4.68;;;2.10;;
25531;SDS011;13429;48.816;9.118;2022-11-24T16:07:57;7.32;;;2.50;;
25531;SDS011;13429;48.816;9.118;2022-11-24T16:10:24;6.07;;;1.85;;
25531;SDS011;13429;48.816;9.118;2022-11-24T16:12:51;8.98;;;3.10;;
25531;SDS011;13429;48.816;9.118;2022-11-24T16:15:17;10.15;;;3.33;;
25531;SDS011;13429;48.816;9.118;2022-11-24T16:20:47;7.32;;;3.20;;
25531;SDS011;13429;48.816;9.118;2022-11-24T16:23:12;12.15;;;3.00;;
25531;SDS011;13429;48.816;9.118;2022-11-24T16:25:38;9.85;;;2.60;;
25531;SDS011;13429;48.816;9.118;2022-11-24T16:28:04;4.10;;;2.03;;
25531;SDS011;13429;48.816;9.118;2022-11-24T16:30:30;11.63;;;2.70;;
25531;SDS011;13429;48.816;9.118;2022-11-24T16:32:56;9.30;;;2.30;;
25531;SDS011;13429;48.816;9.118;2022-11-24T16:35:22;13.45;;;2.80;;
25531;SDS011;13429;48.816;9.118;2022-11-24T16:37:48;9.00;;;2.22;;
25531;SDS011;13429;48.816;9.118;2022-11-24T16:43:18;7.00;;;2.35;;
25531;SDS011;13429;48.816;9.118;2022-11-24T16:45:44;3.90;;;1.67;;
25531;SDS011;13429;48.816;9.118;2022-11-24T16:48:10;4.10;;;1.90;;